This demonstration page uses our WeatherBlox Daily Observations layout. Learn more.

41.55636, -103.73856

Hourly Observations for March 1, 2019

Temp ( °F °C ) Dew Point ( °F °C ) Humidity (%) Winds ( mph kmh ) Pressure ( in mb ) Visibility ( mi km ) Precip ( " mm )
12:58 am 00:58 Mostly Cloudy 37 3 24 -4.4 59 59 SSW 14 22 29.95 1014 10 16.0934 N/A
1:58 am 01:58 Mostly Cloudy 37 2.8 24 -4.2 60 60 SSW 14 22 29.94 1014 10 16.0934 N/A
2:58 am 02:58 Mostly Cloudy 37 3 25 -3.9 61 61 SW 17 28 29.92 1013 10 16.0934 N/A
3:58 am 03:58 Mostly Clear 35 1.7 25 -3.7 68 68 SW 17 28 29.89 1012 10 16.0934 N/A
4:58 am 04:58 Mostly Cloudy 33 0.3 24 -4.3 72 72 SW 10 17 29.88 1012 10 16.0934 N/A
5:58 am 05:58 Mostly Cloudy 36 2 27 -2.8 71 71 SSW 15 24 29.82 1010 10 16.0934 N/A
6:58 am 06:58 Mostly Cloudy 35 1.7 27 -2.6 73 73 SW 16 26 29.8 1009 10 16.0934 N/A
7:58 am 07:58 Mostly Cloudy 36 2.3 29 -1.8 75 75 WSW 12 19 29.8 1009 10 16.0934 N/A
8:58 am 08:58 Mostly Clear 36 2 27 -2.8 71 71 WSW 15 24 29.79 1009 10 16.0934 N/A
9:58 am 09:58 Clear 35 1.6 25 -4 67 67 W 15 24 29.77 1008 10 16.0934 N/A
10:58 am 10:58 Mostly Clear 35 1.8 24 -4.4 64 64 W 21 33 29.8 1009 10 16.0934 N/A
11:58 am 11:58 Clear 35 1.6 25 -4 67 67 W 17 28 29.82 1010 10 16.0934 N/A
12:58 pm 12:58 Partly Cloudy 35 1.6 27 -2.9 72 72 W 15 24 29.85 1011 10 16.0934 N/A
1:58 pm 13:58 Partly Cloudy with Mist and Fog 23 -5.1 19 -7 87 87 N 21 33 29.96 1015 5 8.0467 N/A
2:58 pm 14:58 Mostly Cloudy with Mist and Fog 22 -5.8 20 -6.8 93 93 N 23 37 30.02 1017 4 6.43736 N/A
3:58 pm 15:58 Mostly Cloudy 24 -4.2 19 -7 81 81 NNW 24 39 30.05 1018 10 16.0934 N/A
4:58 pm 16:58 Windy with Snow Showers Likely 28 -2.1 17 -8.5 62 62 N 28 44 30.07 1018 10 16.0934 N/A
5:58 pm 17:58 Sunny 31 -0.7 15 -9.2 53 53 N 23 37 30.1 1019 10 16.0934 N/A
6:58 pm 18:58 Sunny 32 0.1 15 -9.5 49 49 N 18 30 30.09 1019 10 16.0934 N/A
7:58 pm 19:58 Sunny 35 1.5 13 -10.8 40 40 N 17 28 30.06 1018 10 16.0934 N/A
9:58 pm 21:58 Sunny 36 2.3 9 -12.6 33 33 N 13 20 30.04 1017 10 16.0934 N/A
10:58 pm 22:58 Sunny 36 2.1 7 -13.7 30 30 NNE 7 11 30.04 1017 10 16.0934 N/A
11:58 pm 23:58 Sunny 34 1.1 7 -13.7 33 33 ENE 8 13 30.05 1018 10 16.0934 N/A

Powered by AerisWeather